KTIK/TIK METAR and TAF weather

Enter ICAO airport designator
Station Type Date Time Source
KTIK METAR 2019/10/22 15:56 UTC NOAA

KTIK 221556Z AUTO 28007KT 10SM CLR 16/M04 A3021 RMK AO2 SLP235 T01561044


Station Type Date Time Source
KTIK Decoded METAR 2019/10/22 15:56 UTC NOAA

Tinker Air Force Base, OK, United States (KTIK) 35-25N 097-23W 397M
Oct 22, 2019 - 11:56 AM EDT / 2019.10.22 1556 UTC
Wind: from the W (280 degrees) at 8 MPH (7 KT):0
Visibility: 10 mile(s):0
Sky conditions: clear
Temperature: 60.1 F (15.6 C)
Dew Point: 24.1 F (-4.4 C)
Relative Humidity: 24%
Pressure (altimeter): 30.21 in. Hg (1023 hPa)
ob: KTIK 221556Z AUTO 28007KT 10SM CLR 16/M04 A3021 RMK AO2 SLP235 T01561044
cycle: 16

Station Type Date Time Source
KTIK TAF 2019/10/22 09:03 UTC NOAA

TAF KTIK 220900Z 2209/2315 28009KT 9999 FEW100 QNH2990INS
BECMG 2217/2218 25012G18KT 9999 SKC QNH3010INS
BECMG 2222/2223 20006KT 9999 SKC QNH3007INS TX19/2220Z TN04/2211Z

Example: see airport list